Washington, DC (20505)

6:49 AM EDT on March 27, 2015 (GMT -0400)
Logan Circle | | Change Station
CLOSE
Current Station
Personal Weather Station
Location: Washington, DC
Elevation: 108 ft
Nearby Weather Stations

Elev 108 ft 38.91 °N, 77.03 °W | Updated 16 seconds ago

Rain
Rain
40.7 °F
Feels Like 41 °F
N
0.0
Wind Variable Wind from North
Gusts 0.0 mph

Today
High -- | Low -- °F
--% Chance of Precip.
Yesterday
High -- | Low -- °F
Precip. -- in
7:01 AM 7:26 PM
Waxing Crescent, 51% visible
Pressure 29.81 in
Visibility 10.0 miles
Clouds Few 1300 ft
Overcast 4900 ft
Windchill 41 °F
Dew Point 36 °F
Humidity 85%
Rainfall 0.42 in
Snow Depth Not available.
UV 0 out of 12
Pollen 8.10 out of 12
Air Quality Not available.
Flu Activity Not available.
METAR KDCA 270952Z 35011KT 10SM -RA FEW013 OVC049 07/03 A2981 RMK AO2 SLP093 P0006 T00670028 $

More Conditions Fewer Conditions

Pressure 29.81 in
Visibility 10.0 miles
Clouds Few 1300 ft
Overcast 4900 ft
Windchill 41 °F
Dew Point 36 °F
Humidity 85%
Rainfall 0.42 in
Snow Depth Not available.
UV 0 out of 12
Pollen 8.10 out of 12
Air Quality Not available.
Flu Activity Not available.
METAR KDCA 270952Z 35011KT 10SM -RA FEW013 OVC049 07/03 A2981 RMK AO2 SLP093 P0006 T00670028 $

More Conditions Fewer Conditions

Nowcast | as of 5:10 am EDT on March 27, 2015

A band of moderate to locally heavy rain will affect areas just east of the Blue Ridge mountains...extending to the northwestern portions of the Washington and Baltimore metropolitan areas early this morning. Rainfall amounts will range from a quarter to half inch through 7 am...with isolated amounts of an inch or greater possible. Expect rainy conditions during the morning commute. Allow extra time for travel...and be alert for ponding of water on roadways.

×

10-Day Weather Forecast

Almanac

Astronomy

Mar. 27, 2015 Rise Set
Actual Time
Civil Twilight
Nautical Twilight
Astronomical Twilight
Moon
Length of Visible Light
Length of Day
Tomorrow will be .
, % of the Moon is Illuminated

Today's Extremes

State Highs State Lows

Community

WunderPhotos

Upload Photos

1,808,706 photos uploaded!

WunderBlogs® & News

Nearby

Air Quality

  Air Quality AQ Index Pollutant
Not available.

Snow Depth

Station Depth Elevation

Earthquake Activity

City Distance Mag. Time & Date
Minimum magnitude displayed is 2.5.

Coastal Water Temperatures

Place Temperature

Stations

Nearby Weather Stations

Station Location Temp. Windchill Dew Point Humidity Wind Precip. Elev Updated Type